createdAt,value
2022-12-16T00:00:55.899Z,948.41
2022-12-16T00:01:55.856Z,948.44
2022-12-16T00:02:55.810Z,948.44
2022-12-16T00:03:55.814Z,948.50
2022-12-16T00:04:55.659Z,948.50
2022-12-16T00:05:55.611Z,948.52
2022-12-16T00:06:55.560Z,948.56
2022-12-16T00:07:55.514Z,948.58
2022-12-16T00:08:55.463Z,948.59
2022-12-16T00:09:55.463Z,948.59
2022-12-16T00:10:55.369Z,948.61
2022-12-16T00:11:55.321Z,948.56
2022-12-16T00:12:55.274Z,948.58
2022-12-16T00:13:55.285Z,948.57
2022-12-16T00:14:55.175Z,948.52
2022-12-16T00:15:55.176Z,948.55
2022-12-16T00:16:55.076Z,948.51
2022-12-16T00:17:55.032Z,948.45
2022-12-16T00:18:54.983Z,948.48
2022-12-16T00:19:54.930Z,948.45
2022-12-16T00:20:54.948Z,948.43
2022-12-16T00:21:54.856Z,948.45
2022-12-16T00:22:54.787Z,948.41
2022-12-16T00:23:54.738Z,948.40
2022-12-16T00:24:54.687Z,948.38
2022-12-16T00:25:54.642Z,948.36
2022-12-16T00:26:54.595Z,948.40
2022-12-16T00:27:58.801Z,948.47
2022-12-16T00:28:54.817Z,948.48
2022-12-16T00:29:54.452Z,948.49
2022-12-16T00:30:55.130Z,948.53
2022-12-16T00:31:54.395Z,948.52
2022-12-16T00:32:54.303Z,948.55
2022-12-16T00:33:54.267Z,948.51
2022-12-16T00:34:54.209Z,948.50
2022-12-16T00:35:54.159Z,948.46
2022-12-16T00:36:54.114Z,948.48
2022-12-16T00:37:54.062Z,948.48
2022-12-16T00:38:54.050Z,948.47
2022-12-16T00:39:53.967Z,948.48
2022-12-16T00:40:53.921Z,948.51
2022-12-16T00:41:53.873Z,948.49
2022-12-16T00:42:53.821Z,948.53
2022-12-16T00:43:53.773Z,948.52
2022-12-16T00:44:53.737Z,948.57
2022-12-16T00:45:53.711Z,948.60
2022-12-16T00:46:53.633Z,948.66
2022-12-16T00:47:53.577Z,948.62
2022-12-16T00:48:53.552Z,948.68
2022-12-16T00:49:53.483Z,948.64
2022-12-16T00:50:54.962Z,948.70
2022-12-16T00:51:53.390Z,948.72
2022-12-16T00:52:53.342Z,948.76
2022-12-16T00:53:53.293Z,948.72
2022-12-16T00:54:53.255Z,948.69
2022-12-16T00:55:53.190Z,948.73
2022-12-16T00:56:53.146Z,948.72
2022-12-16T00:57:53.097Z,948.70
2022-12-16T00:58:53.047Z,948.69
2022-12-16T00:59:53.004Z,948.73
2022-12-16T01:00:52.969Z,948.70
2022-12-16T01:01:53.120Z,948.68
2022-12-16T01:02:53.707Z,948.71
2022-12-16T01:03:52.873Z,948.75
2022-12-16T01:04:52.762Z,948.78
2022-12-16T01:05:52.709Z,948.82
2022-12-16T01:06:52.680Z,948.84
2022-12-16T01:07:52.620Z,948.93
2022-12-16T01:08:52.576Z,948.92
2022-12-16T01:09:52.519Z,948.98
2022-12-16T01:10:52.474Z,948.96
2022-12-16T01:11:52.425Z,948.99
2022-12-16T01:12:52.702Z,948.98
2022-12-16T01:13:52.328Z,948.99
2022-12-16T01:14:52.281Z,949.03
2022-12-16T01:15:52.231Z,949.03
2022-12-16T01:16:52.194Z,949.00
2022-12-16T01:17:52.137Z,949.01
2022-12-16T01:18:52.106Z,949.05
2022-12-16T01:19:52.034Z,949.09
2022-12-16T01:20:51.988Z,949.07
2022-12-16T01:21:51.941Z,949.05
2022-12-16T01:22:51.902Z,949.04
2022-12-16T01:23:51.853Z,949.00
2022-12-16T01:24:51.816Z,949.00
2022-12-16T01:25:51.750Z,948.97
2022-12-16T01:26:51.709Z,948.95
2022-12-16T01:27:51.650Z,948.96
2022-12-16T01:28:51.608Z,948.94
2022-12-16T01:29:51.555Z,948.92
2022-12-16T01:30:51.526Z,948.95
2022-12-16T01:31:51.563Z,948.95
2022-12-16T01:32:51.416Z,949.07
2022-12-16T01:33:51.370Z,949.07
2022-12-16T01:34:54.947Z,949.07
2022-12-16T01:35:55.512Z,949.13
2022-12-16T01:36:51.406Z,949.14
2022-12-16T01:37:51.171Z,949.16
2022-12-16T01:38:51.123Z,949.15
2022-12-16T01:39:51.101Z,949.18
2022-12-16T01:40:51.038Z,949.24
2022-12-16T01:41:50.998Z,949.28
2022-12-16T01:42:50.936Z,949.32
2022-12-16T01:43:50.880Z,949.34
2022-12-16T01:44:52.096Z,949.36
2022-12-16T01:45:50.848Z,949.36
2022-12-16T01:46:50.752Z,949.34
2022-12-16T01:47:50.693Z,949.37
2022-12-16T01:48:50.643Z,949.40
2022-12-16T01:49:50.594Z,949.38
2022-12-16T01:50:50.550Z,949.44
2022-12-16T01:51:55.217Z,949.42
2022-12-16T01:52:50.457Z,949.46
2022-12-16T01:53:50.404Z,949.47
2022-12-16T01:54:50.360Z,949.47
2022-12-16T01:55:50.305Z,949.48
2022-12-16T01:56:50.264Z,949.46
2022-12-16T01:57:50.221Z,949.46
2022-12-16T01:58:50.162Z,949.51
2022-12-16T01:59:50.117Z,949.45
2022-12-16T02:00:50.118Z,949.46
2022-12-16T02:01:50.107Z,949.41
2022-12-16T02:02:50.128Z,949.42
2022-12-16T02:03:49.942Z,949.42
2022-12-16T02:04:49.881Z,949.40
2022-12-16T02:05:49.830Z,949.43
2022-12-16T02:06:49.783Z,949.43
2022-12-16T02:07:49.733Z,949.41
2022-12-16T02:08:49.716Z,949.48
2022-12-16T02:09:49.642Z,949.44
2022-12-16T02:10:49.591Z,949.49
2022-12-16T02:11:49.543Z,949.56
2022-12-16T02:12:49.491Z,949.56
2022-12-16T02:13:49.443Z,949.55
2022-12-16T02:14:49.427Z,949.57
2022-12-16T02:15:49.360Z,949.58
2022-12-16T02:16:49.369Z,949.58
2022-12-16T02:17:49.257Z,949.60
2022-12-16T02:18:49.212Z,949.62
2022-12-16T02:19:49.162Z,949.61
2022-12-16T02:20:49.239Z,949.62
2022-12-16T02:21:49.065Z,949.64
2022-12-16T02:22:49.017Z,949.69
2022-12-16T02:23:48.967Z,949.68
2022-12-16T02:24:48.920Z,949.70
2022-12-16T02:25:48.867Z,949.70
2022-12-16T02:26:48.840Z,949.71
2022-12-16T02:27:48.775Z,949.76
2022-12-16T02:28:48.729Z,949.78
2022-12-16T02:29:48.674Z,949.76
2022-12-16T02:30:48.687Z,949.82
2022-12-16T02:31:53.124Z,949.81
2022-12-16T02:32:48.561Z,949.86
2022-12-16T02:33:48.488Z,949.83
2022-12-16T02:34:48.437Z,949.88
2022-12-16T02:35:48.397Z,949.92
2022-12-16T02:36:48.341Z,949.88
2022-12-16T02:37:48.294Z,949.94
2022-12-16T02:38:51.070Z,949.92
2022-12-16T02:39:48.193Z,949.98
2022-12-16T02:40:48.154Z,949.98
2022-12-16T02:41:48.100Z,949.99
2022-12-16T02:42:48.059Z,950.01
2022-12-16T02:43:48.010Z,950.01
2022-12-16T02:44:47.981Z,950.05
2022-12-16T02:45:47.968Z,950.09
2022-12-16T02:46:47.870Z,950.07
2022-12-16T02:47:47.808Z,950.10
2022-12-16T02:48:47.760Z,950.11
2022-12-16T02:49:47.710Z,950.17
2022-12-16T02:50:47.676Z,950.18
2022-12-16T02:51:47.651Z,950.15
2022-12-16T02:52:47.580Z,950.16
2022-12-16T02:53:47.520Z,950.12
2022-12-16T02:54:47.474Z,950.20
2022-12-16T02:55:47.423Z,950.14
2022-12-16T02:56:47.380Z,950.10
2022-12-16T02:57:47.336Z,950.11
2022-12-16T02:58:47.286Z,950.13
2022-12-16T02:59:47.228Z,950.08
2022-12-16T03:00:47.176Z,950.07
2022-12-16T03:01:47.217Z,950.10
2022-12-16T03:02:47.144Z,950.09
2022-12-16T03:03:47.120Z,950.08
2022-12-16T03:04:46.981Z,950.13
2022-12-16T03:05:46.931Z,950.14
2022-12-16T03:06:46.889Z,950.14
2022-12-16T03:07:46.843Z,950.15
2022-12-16T03:08:46.796Z,950.15
2022-12-16T03:09:46.863Z,950.14
2022-12-16T03:10:46.690Z,950.19
2022-12-16T03:11:46.641Z,950.16
2022-12-16T03:12:46.595Z,950.20
2022-12-16T03:13:46.543Z,950.20
2022-12-16T03:14:46.494Z,950.21
2022-12-16T03:15:46.456Z,950.20
2022-12-16T03:16:46.443Z,950.19
2022-12-16T03:17:46.346Z,950.23
2022-12-16T03:18:46.300Z,950.20
2022-12-16T03:19:46.252Z,950.24
2022-12-16T03:20:46.212Z,950.22
2022-12-16T03:21:46.155Z,950.26
2022-12-16T03:22:46.105Z,950.30
2022-12-16T03:23:46.062Z,950.29
2022-12-16T03:24:46.004Z,950.32
2022-12-16T03:25:45.996Z,950.31
2022-12-16T03:26:45.916Z,950.32
2022-12-16T03:27:45.856Z,950.34
2022-12-16T03:28:45.812Z,950.37
2022-12-16T03:29:45.762Z,950.38
2022-12-16T03:30:45.775Z,950.35
2022-12-16T03:31:45.678Z,950.37
2022-12-16T03:32:45.626Z,950.35
2022-12-16T03:33:45.575Z,950.38
2022-12-16T03:34:45.520Z,950.41
2022-12-16T03:35:45.467Z,950.37
2022-12-16T03:36:45.422Z,950.37
2022-12-16T03:37:45.399Z,950.39
2022-12-16T03:38:45.325Z,950.37
2022-12-16T03:39:45.275Z,950.41
2022-12-16T03:40:45.224Z,950.40
2022-12-16T03:41:45.187Z,950.38
2022-12-16T03:42:45.125Z,950.46
2022-12-16T03:43:45.183Z,950.41
2022-12-16T03:44:45.032Z,950.41
2022-12-16T03:45:44.988Z,950.42
2022-12-16T03:46:44.978Z,950.40
2022-12-16T03:47:44.892Z,950.44
2022-12-16T03:48:44.833Z,950.43
2022-12-16T03:49:44.811Z,950.45
2022-12-16T03:50:44.741Z,950.49
2022-12-16T03:51:44.688Z,950.47
2022-12-16T03:52:44.642Z,950.44
2022-12-16T03:53:44.589Z,950.45
2022-12-16T03:54:44.540Z,950.45
2022-12-16T03:55:44.523Z,950.49
2022-12-16T03:56:44.450Z,950.53
2022-12-16T03:57:44.396Z,950.59
2022-12-16T03:58:44.359Z,950.57
2022-12-16T03:59:44.294Z,950.59
2022-12-16T04:00:44.246Z,950.59
2022-12-16T04:01:44.373Z,950.63
2022-12-16T04:02:44.313Z,950.62
2022-12-16T04:03:44.195Z,950.65
2022-12-16T04:04:44.053Z,950.65
2022-12-16T04:05:44.003Z,950.68
2022-12-16T04:06:43.977Z,950.68
2022-12-16T04:07:43.904Z,950.72
2022-12-16T04:08:43.869Z,950.71
2022-12-16T04:09:43.836Z,950.74
2022-12-16T04:10:43.757Z,950.73
2022-12-16T04:11:43.710Z,950.76
2022-12-16T04:12:43.696Z,950.76
2022-12-16T04:13:43.609Z,950.74
2022-12-16T04:14:43.565Z,950.77
2022-12-16T04:15:43.576Z,950.72
2022-12-16T04:16:43.462Z,950.74
2022-12-16T04:17:43.415Z,950.76
2022-12-16T04:18:43.381Z,950.78
2022-12-16T04:19:43.326Z,950.83
2022-12-16T04:20:43.285Z,950.81
2022-12-16T04:21:43.219Z,950.85
2022-12-16T04:22:43.174Z,950.88
2022-12-16T04:23:43.144Z,950.90
2022-12-16T04:24:43.074Z,950.92
2022-12-16T04:25:43.024Z,950.88
2022-12-16T04:26:42.971Z,950.89
2022-12-16T04:27:42.921Z,950.88
2022-12-16T04:28:42.877Z,950.93
2022-12-16T04:29:42.846Z,950.90
2022-12-16T04:30:42.782Z,950.95
2022-12-16T04:31:42.770Z,950.96
2022-12-16T04:32:42.694Z,950.95
2022-12-16T04:33:42.635Z,950.98
2022-12-16T04:34:42.582Z,950.99
2022-12-16T04:35:42.549Z,951.01
2022-12-16T04:36:42.484Z,951.07
2022-12-16T04:37:42.438Z,951.09
2022-12-16T04:38:42.387Z,951.08
2022-12-16T04:39:42.347Z,951.11
2022-12-16T04:40:42.287Z,951.11
2022-12-16T04:41:42.241Z,951.12
2022-12-16T04:42:42.190Z,951.11
2022-12-16T04:43:42.140Z,951.14
2022-12-16T04:44:42.115Z,951.14
2022-12-16T04:45:42.042Z,951.14
2022-12-16T04:46:42.076Z,951.19
2022-12-16T04:47:41.944Z,951.26
2022-12-16T04:48:41.894Z,951.23
2022-12-16T04:49:41.845Z,951.24
2022-12-16T04:50:41.811Z,951.23
2022-12-16T04:51:41.751Z,951.24
2022-12-16T04:52:41.702Z,951.26
2022-12-16T04:53:41.653Z,951.29
2022-12-16T04:54:41.601Z,951.32
2022-12-16T04:55:41.556Z,951.31
2022-12-16T04:56:41.521Z,951.35
2022-12-16T04:57:41.455Z,951.37
2022-12-16T04:58:41.407Z,951.37
2022-12-16T04:59:41.357Z,951.37
2022-12-16T05:00:41.307Z,951.39
2022-12-16T05:01:41.344Z,951.39
2022-12-16T05:02:41.325Z,951.44
2022-12-16T05:03:41.224Z,951.46
2022-12-16T05:04:41.109Z,951.50
2022-12-16T05:05:41.104Z,951.51
2022-12-16T05:06:41.019Z,951.49
2022-12-16T05:07:40.963Z,951.51
2022-12-16T05:08:40.950Z,951.56
2022-12-16T05:09:40.864Z,951.52
2022-12-16T05:10:40.810Z,951.59
2022-12-16T05:11:40.763Z,951.60
2022-12-16T05:12:40.717Z,951.60
2022-12-16T05:13:40.664Z,951.64
2022-12-16T05:14:40.624Z,951.63
2022-12-16T05:15:40.623Z,951.70
2022-12-16T05:16:40.522Z,951.67
2022-12-16T05:17:40.474Z,951.67
2022-12-16T05:18:40.419Z,951.67
2022-12-16T05:19:40.412Z,951.69
2022-12-16T05:20:40.323Z,951.68
2022-12-16T05:21:40.274Z,951.71
2022-12-16T05:22:40.227Z,951.74
2022-12-16T05:23:40.176Z,951.73
2022-12-16T05:24:40.124Z,951.75
2022-12-16T05:25:40.114Z,951.77
2022-12-16T05:26:40.030Z,951.80
2022-12-16T05:27:39.987Z,951.83
2022-12-16T05:28:39.940Z,951.80
2022-12-16T05:29:39.877Z,951.82
2022-12-16T05:30:39.835Z,951.89
2022-12-16T05:31:39.834Z,951.89
2022-12-16T05:32:39.729Z,951.86
2022-12-16T05:33:39.685Z,951.92
2022-12-16T05:34:39.630Z,951.92
2022-12-16T05:35:39.587Z,951.96
2022-12-16T05:36:39.579Z,951.96
2022-12-16T05:37:39.488Z,952.01
2022-12-16T05:38:39.438Z,952.01
2022-12-16T05:39:39.386Z,952.03
2022-12-16T05:40:39.335Z,952.02
2022-12-16T05:41:39.290Z,952.06
2022-12-16T05:42:39.260Z,952.04
2022-12-16T05:43:39.190Z,952.01
2022-12-16T05:44:39.137Z,952.03
2022-12-16T05:45:39.129Z,952.03
2022-12-16T05:46:39.257Z,952.04
2022-12-16T05:47:38.993Z,952.07
2022-12-16T05:48:40.978Z,952.07
2022-12-16T05:49:38.917Z,952.06
2022-12-16T05:50:38.846Z,952.08
2022-12-16T05:51:38.797Z,952.06
2022-12-16T05:52:38.746Z,952.12
2022-12-16T05:53:38.697Z,952.12
2022-12-16T05:54:38.651Z,952.10
2022-12-16T05:55:38.618Z,952.11
2022-12-16T05:56:38.549Z,952.12
2022-12-16T05:57:38.498Z,952.14
2022-12-16T05:58:38.454Z,952.12
2022-12-16T05:59:38.419Z,952.14
2022-12-16T06:03:46.844Z,952.18
2022-12-16T06:04:46.569Z,952.22
2022-12-16T06:05:46.570Z,952.20
2022-12-16T06:06:46.458Z,952.21
2022-12-16T06:07:46.406Z,952.23
2022-12-16T06:08:46.365Z,952.21
2022-12-16T06:09:46.385Z,952.26
2022-12-16T06:10:46.263Z,952.26
2022-12-16T06:11:46.408Z,952.31
2022-12-16T06:12:46.194Z,952.26
2022-12-16T06:13:46.108Z,952.30
2022-12-16T06:14:46.224Z,952.31
2022-12-16T06:15:46.075Z,952.32
2022-12-16T06:16:46.075Z,952.36
2022-12-16T06:17:45.917Z,952.38
2022-12-16T06:18:45.965Z,952.41
2022-12-16T06:19:45.832Z,952.42
2022-12-16T06:20:45.900Z,952.44
2022-12-16T06:21:45.750Z,952.47
2022-12-16T06:22:45.820Z,952.44
2022-12-16T06:23:45.617Z,952.51
2022-12-16T06:24:45.563Z,952.50
2022-12-16T06:25:45.523Z,952.50
2022-12-16T06:26:45.700Z,952.51
2022-12-16T06:27:45.547Z,952.56
2022-12-16T06:28:46.141Z,952.56
2022-12-16T06:29:45.321Z,952.56
2022-12-16T06:30:45.268Z,952.58
2022-12-16T06:31:45.402Z,952.57
2022-12-16T06:32:45.169Z,952.62
2022-12-16T06:33:45.334Z,952.63
2022-12-16T06:34:45.075Z,952.68
2022-12-16T06:35:45.019Z,952.67
2022-12-16T06:36:44.970Z,952.68
2022-12-16T06:37:45.206Z,952.70
2022-12-16T06:38:44.872Z,952.72
2022-12-16T06:39:47.585Z,952.70
2022-12-16T06:40:44.774Z,952.73
2022-12-16T06:41:44.725Z,952.75
2022-12-16T06:42:44.682Z,952.78
2022-12-16T06:43:44.795Z,952.81
2022-12-16T06:44:44.580Z,952.85
2022-12-16T06:45:44.854Z,952.82
2022-12-16T06:46:44.487Z,952.86
2022-12-16T06:47:44.518Z,952.90
2022-12-16T06:48:44.402Z,952.92
2022-12-16T06:49:44.437Z,952.93
2022-12-16T06:50:45.102Z,952.96
2022-12-16T06:51:44.647Z,952.98
2022-12-16T06:52:44.244Z,952.97
2022-12-16T06:53:44.142Z,953.00
2022-12-16T06:54:44.264Z,953.06
2022-12-16T06:55:44.072Z,953.08
2022-12-16T06:56:44.088Z,953.11
2022-12-16T06:57:43.998Z,953.14
2022-12-16T06:58:43.885Z,953.14
2022-12-16T06:59:43.922Z,953.14
2022-12-16T07:00:43.863Z,953.13
2022-12-16T07:01:43.899Z,953.20
2022-12-16T07:02:43.791Z,953.17
2022-12-16T07:03:43.787Z,953.15
2022-12-16T07:04:43.591Z,953.17
2022-12-16T07:05:43.631Z,953.24
2022-12-16T07:06:43.491Z,953.24
2022-12-16T07:07:43.639Z,953.24
2022-12-16T07:08:43.437Z,953.23
2022-12-16T07:09:43.361Z,953.23
2022-12-16T07:10:43.463Z,953.25
2022-12-16T07:11:43.254Z,953.25
2022-12-16T07:12:43.270Z,953.29
2022-12-16T07:13:43.155Z,953.30
2022-12-16T07:14:43.199Z,953.33
2022-12-16T07:15:43.128Z,953.31
2022-12-16T07:16:43.151Z,953.38
2022-12-16T07:17:42.961Z,953.41
2022-12-16T07:18:43.102Z,953.44
2022-12-16T07:19:42.860Z,953.44
2022-12-16T07:20:43.008Z,953.51
2022-12-16T07:21:42.776Z,953.52
2022-12-16T07:22:42.929Z,953.56
2022-12-16T07:23:42.657Z,953.57
2022-12-16T07:24:42.777Z,953.63
2022-12-16T07:25:42.564Z,953.60
2022-12-16T07:26:42.516Z,953.62
2022-12-16T07:27:42.776Z,953.66
2022-12-16T07:28:42.419Z,953.64
2022-12-16T07:29:42.581Z,953.69
2022-12-16T07:30:42.350Z,953.69
2022-12-16T07:31:42.292Z,953.72
2022-12-16T07:32:42.214Z,953.70
2022-12-16T07:33:42.397Z,953.73
2022-12-16T07:34:45.881Z,953.72
2022-12-16T07:35:42.205Z,953.75
2022-12-16T07:36:42.093Z,953.79
2022-12-16T07:37:41.973Z,953.80
2022-12-16T07:38:42.068Z,953.80
2022-12-16T07:39:41.977Z,953.83
2022-12-16T07:40:41.861Z,953.83
2022-12-16T07:41:41.820Z,953.86
2022-12-16T07:42:41.866Z,953.85
2022-12-16T07:43:41.675Z,953.90
2022-12-16T07:44:41.881Z,953.91
2022-12-16T07:45:45.082Z,953.91
2022-12-16T07:46:41.673Z,953.93
2022-12-16T07:47:41.540Z,953.98
2022-12-16T07:48:41.437Z,953.92
2022-12-16T07:49:41.424Z,953.99
2022-12-16T07:50:41.510Z,954.00
2022-12-16T07:51:41.362Z,954.03
2022-12-16T07:52:41.582Z,954.00
2022-12-16T07:53:41.193Z,954.03
2022-12-16T07:54:41.144Z,954.03
2022-12-16T07:55:41.325Z,954.06
2022-12-16T07:56:41.044Z,954.04
2022-12-16T07:57:41.134Z,954.07
2022-12-16T07:58:40.948Z,954.09
2022-12-16T07:59:40.901Z,954.08
2022-12-16T08:00:40.849Z,954.14
2022-12-16T08:01:41.105Z,954.13
2022-12-16T08:02:40.989Z,954.14
2022-12-16T08:03:42.195Z,954.15
2022-12-16T08:04:40.651Z,954.16
2022-12-16T08:05:40.608Z,954.20
2022-12-16T08:06:40.720Z,954.23
2022-12-16T08:07:40.511Z,954.26
2022-12-16T08:08:40.706Z,954.26
2022-12-16T08:09:40.428Z,954.26
2022-12-16T08:10:40.369Z,954.29
2022-12-16T08:11:40.325Z,954.31
2022-12-16T08:12:40.542Z,954.31
2022-12-16T08:13:40.510Z,954.30
2022-12-16T08:14:40.344Z,954.31
2022-12-16T08:15:40.121Z,954.36
2022-12-16T08:16:40.110Z,954.35
2022-12-16T08:17:40.159Z,954.37
2022-12-16T08:18:40.023Z,954.35
2022-12-16T08:19:40.171Z,954.36
2022-12-16T08:20:39.887Z,954.40
2022-12-16T08:21:39.986Z,954.38
2022-12-16T08:22:39.779Z,954.39
2022-12-16T08:23:39.793Z,954.37
2022-12-16T08:24:39.704Z,954.42
2022-12-16T08:25:39.705Z,954.44
2022-12-16T08:26:39.584Z,954.40
2022-12-16T08:27:39.537Z,954.41
2022-12-16T08:28:39.485Z,954.41
2022-12-16T08:29:46.637Z,954.45
2022-12-16T08:30:39.612Z,954.48
2022-12-16T08:31:39.549Z,954.46
2022-12-16T08:32:39.298Z,954.50
2022-12-16T08:33:39.250Z,954.47
2022-12-16T08:34:39.362Z,954.51
2022-12-16T08:35:39.151Z,954.56
2022-12-16T08:36:39.386Z,954.57
2022-12-16T08:37:39.053Z,954.56
2022-12-16T08:38:39.001Z,954.62
2022-12-16T08:39:38.952Z,954.61
2022-12-16T08:40:40.023Z,954.65
2022-12-16T08:41:38.873Z,954.64
2022-12-16T08:42:39.213Z,954.67
2022-12-16T08:43:38.763Z,954.76
2022-12-16T08:44:38.717Z,954.71
2022-12-16T08:45:38.690Z,954.70
2022-12-16T08:46:38.872Z,954.71
2022-12-16T08:47:38.566Z,954.74
2022-12-16T08:48:38.646Z,954.71
2022-12-16T08:49:38.466Z,954.78
2022-12-16T08:50:38.422Z,954.81
2022-12-16T08:51:38.465Z,954.85
2022-12-16T08:52:38.322Z,954.82
2022-12-16T08:53:38.475Z,954.90
2022-12-16T08:54:38.537Z,954.87
2022-12-16T08:55:38.289Z,954.92
2022-12-16T08:56:38.129Z,954.89
2022-12-16T08:57:38.301Z,954.90
2022-12-16T08:58:38.027Z,954.93
2022-12-16T08:59:38.110Z,954.91
2022-12-16T09:00:37.973Z,954.92
2022-12-16T09:01:38.017Z,954.97
2022-12-16T09:02:38.079Z,954.99
2022-12-16T09:03:38.487Z,955.01
2022-12-16T09:04:37.736Z,955.00
2022-12-16T09:05:37.950Z,955.05
2022-12-16T09:06:40.676Z,955.04
2022-12-16T09:07:37.606Z,955.07
2022-12-16T09:08:37.664Z,955.10
2022-12-16T09:09:37.521Z,955.08
2022-12-16T09:10:40.355Z,955.14
2022-12-16T09:11:37.396Z,955.14
2022-12-16T09:12:37.361Z,955.19
2022-12-16T09:13:37.332Z,955.18
2022-12-16T09:14:37.404Z,955.19
2022-12-16T09:15:37.490Z,955.25
2022-12-16T09:16:37.467Z,955.21
2022-12-16T09:17:37.108Z,955.24
2022-12-16T09:18:37.062Z,955.27
2022-12-16T09:19:37.229Z,955.30
2022-12-16T09:20:36.959Z,955.32
2022-12-16T09:21:37.041Z,955.33
2022-12-16T09:22:36.872Z,955.33
2022-12-16T09:23:37.214Z,955.33
2022-12-16T09:24:36.774Z,955.40
2022-12-16T09:25:36.868Z,955.41
2022-12-16T09:26:36.729Z,955.40
2022-12-16T09:27:37.700Z,955.40
2022-12-16T09:28:36.582Z,955.39
2022-12-16T09:29:40.552Z,955.42
2022-12-16T09:30:36.520Z,955.42
2022-12-16T09:31:36.793Z,955.44
2022-12-16T09:32:36.390Z,955.42
2022-12-16T09:33:36.726Z,955.45
2022-12-16T09:34:36.297Z,955.48
2022-12-16T09:35:36.532Z,955.52
2022-12-16T09:36:36.199Z,955.55
2022-12-16T09:37:36.345Z,955.56
2022-12-16T09:38:36.181Z,955.55
2022-12-16T09:39:36.147Z,955.60
2022-12-16T09:40:36.158Z,955.59
2022-12-16T09:41:39.792Z,955.63
2022-12-16T09:42:36.175Z,955.59
2022-12-16T09:43:36.110Z,955.66
2022-12-16T09:44:35.986Z,955.63
2022-12-16T09:45:35.769Z,955.63
2022-12-16T09:46:35.870Z,955.62
2022-12-16T09:47:35.851Z,955.60
2022-12-16T09:48:35.918Z,955.65
2022-12-16T09:49:35.765Z,955.63
2022-12-16T09:50:35.622Z,955.63
2022-12-16T09:51:35.626Z,955.64
2022-12-16T09:52:35.420Z,955.67
2022-12-16T09:53:35.963Z,955.66
2022-12-16T09:54:35.331Z,955.68
2022-12-16T09:55:35.801Z,955.66
2022-12-16T09:56:35.284Z,955.68
2022-12-16T09:57:35.273Z,955.71
2022-12-16T09:58:35.399Z,955.65
2022-12-16T09:59:35.334Z,955.68
2022-12-16T10:00:35.300Z,955.70
2022-12-16T10:01:35.230Z,955.72
2022-12-16T10:02:35.197Z,955.73
2022-12-16T10:03:35.324Z,955.73
2022-12-16T10:04:35.130Z,955.70
2022-12-16T10:05:35.049Z,955.73
2022-12-16T10:06:34.916Z,955.81
2022-12-16T10:07:34.705Z,955.77
2022-12-16T10:08:34.661Z,955.78
2022-12-16T10:09:34.834Z,955.80
2022-12-16T10:10:34.572Z,955.82
2022-12-16T10:11:34.750Z,955.88
2022-12-16T10:12:34.600Z,955.88
2022-12-16T10:13:34.778Z,955.83
2022-12-16T10:14:34.393Z,955.85
2022-12-16T10:15:34.634Z,955.86
2022-12-16T10:16:34.352Z,955.87
2022-12-16T10:17:35.412Z,955.90
2022-12-16T10:18:34.305Z,955.89
2022-12-16T10:19:34.151Z,955.91
2022-12-16T10:20:34.324Z,955.91
2022-12-16T10:21:34.309Z,955.94
2022-12-16T10:22:34.337Z,955.92
2022-12-16T10:23:34.440Z,955.89
2022-12-16T10:24:33.892Z,955.85
2022-12-16T10:25:34.029Z,955.88
2022-12-16T10:26:33.792Z,955.86
2022-12-16T10:27:33.897Z,955.87
2022-12-16T10:28:33.961Z,955.85
2022-12-16T10:29:33.974Z,955.84
2022-12-16T10:30:33.859Z,955.87
2022-12-16T10:31:33.624Z,955.84
2022-12-16T10:32:33.702Z,955.84
2022-12-16T10:33:33.748Z,955.83
2022-12-16T10:34:33.684Z,955.84
2022-12-16T10:35:33.454Z,955.84
2022-12-16T10:36:33.321Z,955.84
2022-12-16T10:37:33.503Z,955.85
2022-12-16T10:38:33.422Z,955.87
2022-12-16T10:39:33.723Z,955.86
2022-12-16T10:40:33.222Z,955.80
2022-12-16T10:41:33.103Z,955.79
2022-12-16T10:42:33.122Z,955.80
2022-12-16T10:43:33.604Z,955.74
2022-12-16T10:44:32.938Z,955.76
2022-12-16T10:45:32.968Z,955.77
2022-12-16T10:46:33.060Z,955.76
2022-12-16T10:47:32.791Z,955.76
2022-12-16T10:48:33.180Z,955.80
2022-12-16T10:49:32.790Z,955.81
2022-12-16T10:50:32.855Z,955.82
2022-12-16T10:51:32.773Z,955.83
2022-12-16T10:52:32.588Z,955.84
2022-12-16T10:53:32.781Z,955.83
2022-12-16T10:54:32.606Z,955.83
2022-12-16T10:55:32.417Z,955.88
2022-12-16T10:56:32.619Z,955.86
2022-12-16T10:57:32.324Z,955.85
2022-12-16T10:58:35.534Z,955.86
2022-12-16T10:59:32.432Z,955.84
2022-12-16T11:00:32.177Z,955.87
2022-12-16T11:01:32.366Z,955.94
2022-12-16T11:02:32.249Z,955.88
2022-12-16T11:03:32.594Z,955.92
2022-12-16T11:04:32.413Z,955.93
2022-12-16T11:05:32.068Z,955.90
2022-12-16T11:06:31.906Z,955.88
2022-12-16T11:07:40.338Z,955.90
2022-12-16T11:08:31.799Z,955.90
2022-12-16T11:09:31.752Z,955.90
2022-12-16T11:10:31.722Z,955.88
2022-12-16T11:11:31.661Z,955.89
2022-12-16T11:12:31.610Z,955.88
2022-12-16T11:13:31.869Z,955.92
2022-12-16T11:14:31.517Z,955.92
2022-12-16T11:15:31.493Z,955.93
2022-12-16T11:16:31.500Z,955.90
2022-12-16T11:17:31.381Z,955.97
2022-12-16T11:18:31.329Z,955.93
2022-12-16T11:19:31.285Z,955.89
2022-12-16T11:20:31.237Z,955.94
2022-12-16T11:21:31.203Z,955.92
2022-12-16T11:22:31.150Z,955.94
2022-12-16T11:23:31.429Z,955.92
2022-12-16T11:24:31.048Z,955.97
2022-12-16T11:25:31.002Z,955.92
2022-12-16T11:26:36.319Z,955.96
2022-12-16T11:27:30.921Z,955.98
2022-12-16T11:28:30.869Z,956.01
2022-12-16T11:29:30.814Z,955.99
2022-12-16T11:30:30.766Z,955.99
2022-12-16T11:31:30.741Z,955.95
2022-12-16T11:32:30.672Z,955.98
2022-12-16T11:33:30.873Z,956.00
2022-12-16T11:34:30.581Z,955.96
2022-12-16T11:35:30.531Z,955.93
2022-12-16T11:36:30.486Z,955.93
2022-12-16T11:37:30.437Z,955.94
2022-12-16T11:38:30.389Z,955.90
2022-12-16T11:39:30.363Z,955.95
2022-12-16T11:40:30.299Z,955.90
2022-12-16T11:41:30.247Z,955.91
2022-12-16T11:42:30.201Z,955.88
2022-12-16T11:43:30.504Z,955.88
2022-12-16T11:44:30.119Z,955.92
2022-12-16T11:45:30.099Z,955.93
2022-12-16T11:46:30.065Z,956.00
2022-12-16T11:47:29.963Z,955.98
2022-12-16T11:48:29.917Z,955.98
2022-12-16T11:49:29.873Z,955.99
2022-12-16T11:50:29.825Z,955.99
2022-12-16T11:51:29.793Z,956.02
2022-12-16T11:52:36.894Z,956.02
2022-12-16T11:53:29.780Z,956.02
2022-12-16T11:54:29.637Z,956.01
2022-12-16T11:55:55.836Z,956.00
2022-12-16T11:56:29.591Z,956.02
2022-12-16T11:57:29.505Z,955.99
2022-12-16T11:58:29.449Z,956.01
2022-12-16T11:59:29.402Z,956.01
2022-12-16T12:00:29.349Z,956.00
2022-12-16T12:01:29.352Z,955.99
2022-12-16T12:02:29.306Z,956.04
2022-12-16T12:03:29.340Z,956.11
2022-12-16T12:04:29.191Z,956.09
2022-12-16T12:05:29.141Z,956.10
2022-12-16T12:06:29.074Z,956.14
2022-12-16T12:07:29.020Z,956.10
2022-12-16T12:08:28.976Z,956.10
2022-12-16T12:09:28.956Z,956.09
2022-12-16T12:10:28.879Z,956.09
2022-12-16T12:11:28.834Z,956.12
2022-12-16T12:12:28.788Z,956.13
2022-12-16T12:13:28.742Z,956.15
2022-12-16T12:14:28.697Z,956.17
2022-12-16T12:15:28.668Z,956.20
2022-12-16T12:16:28.645Z,956.23
2022-12-16T12:17:28.557Z,956.25
2022-12-16T12:18:28.504Z,956.30
2022-12-16T12:19:28.457Z,956.29
2022-12-16T12:20:28.521Z,956.32
2022-12-16T12:21:28.371Z,956.38
2022-12-16T12:22:28.315Z,956.32
2022-12-16T12:23:28.269Z,956.38
2022-12-16T12:24:28.224Z,956.40
2022-12-16T12:25:28.179Z,956.42
2022-12-16T12:26:28.136Z,956.38
2022-12-16T12:27:28.097Z,956.41
2022-12-16T12:28:28.033Z,956.39
2022-12-16T12:29:27.991Z,956.43
2022-12-16T12:30:27.939Z,956.41
2022-12-16T12:31:27.955Z,956.39